X  Cerrar Datos meteorológicos de aviación METAR     LYNI Nis Airport
Temperatura
11°C Temperatura
11°C Punto de rocío
100% Humedad



Viento
2 KM/H
1 MPH
0 M/S
1 NUDO



Calma
N
Condiciones actuales

Parcialmente nublado Parcialmente nublado
Presión 1015.92 (hPa) - 30 (inHg)
Visibilidad 6.2 (milla) - 10 (km)
Aeropuerto
Código de aeropuerto LYNI

localidad: Nis Airport
Distancia: 63 (km)

Metar:
LYNI 030530Z VRB01KT 9999 FEW010 SCT050 11/11 Q1016 BECMG 32013KT RA BKN010

Hora: 03-10-2022 07:30 CEST